• Join FlightAware (Why Join?)
  • Login
  • US Flag 
09:08AM EDT


 

Airport Tracker/Info


-or-


 

Live Flight TrackerFlight Track Log ✈ EJA922 ✈ 20-Oct-2013 ✈ KTEB - KPIT

Flight Track Log - Related Links

Times and Time Zones

All times are in EDT time to prevent confusion due to time zone crossing. See the EJA922 flight status page for this flight to view local times or setup timezone preferences in your user account.

Time Position Orientation Groundspeed Altitude Reporting Facility
EDT Latitude Longitude Course Direction KTS MPH feet Rate Location/Type
08:39PM 40.8167 -74.1167 270° West 191 220 1,500  Level New York TRACON
08:40PM 40.8167 -74.1833 270° West 198 228 4,000 3,180 Climbing New York TRACON
08:41PM 40.8167 -74.2833 270° West 258 297 8,200 3,300 Climbing New York TRACON
08:42PM 40.8167 -74.3833 270° West 273 314 11,000 1,680 Climbing New York TRACON
08:44PM 40.8092 -74.6203 268° West 354 407 13,300 1,920 Climbing New York Center
08:45PM 40.8086 -74.7628 270° West 359 413 16,700 3,120 Climbing New York Center
08:46PM 40.8022 -74.8914 266° West 364 419 19,600 2,760 Climbing New York Center
08:47PM 40.7708 -75.0100 251° West 359 413 22,300 2,580 Climbing New York Center
08:48PM 40.7353 -75.1336 249° West 354 407 24,800 1,800 Climbing New York Center
08:49PM 40.6992 -75.2628 250° West 368 423 26,000 600 Climbing New York Center
08:50PM 40.6581 -75.4050 249° West 387 445 26,000  Level New York Center
08:51PM 40.6169 -75.5528 250° West 414 476 26,000  Level New York Center
08:52PM 40.5775 -75.6975 250° West 426 490 26,000 60 Level New York Center
08:53PM 40.5361 -75.8419 249° West 431 496 26,200 660 Climbing New York Center
08:54PM 40.4928 -75.9753 247° West 431 496 27,400 900 Climbing New York Center
08:55PM 40.4508 -76.1222 249° West 436 502 28,000 300 Climbing New York Center
08:56PM 40.4111 -76.2608 249° West 430 495 28,000  Level New York Center
08:57PM 40.3692 -76.3992 248° West 418 481 28,000  Level New York Center
08:58PM 40.3375 -76.5356 253° West 412 474 28,000  Level New York Center
08:59PM 40.3036 -76.6717 252° West 396 456 28,000 -420 Level New York Center
09:00PM 40.2675 -76.8072 251° West 396 456 27,200 -960 Descending New York Center
09:01PM 40.2311 -76.9483 251° West 396 456 26,100 -600 Descending New York Center
09:02PM 40.1964 -77.0919 252° West 407 468 26,000 -60 Descending New York Center
09:03PM 40.1575 -77.2350 250° West 415 478 26,000  Level New York Center
09:05PM 40.0817 -77.5383 252° West 436 502 26,000 -600 Level Cleveland Center
09:06PM 40.0444 -77.6814 251° West 423 487 24,400 -1,860 Descending Cleveland Center
09:07PM 40.0064 -77.8242 251° West 419 482 22,200 -1,200 Descending Cleveland Center
09:08PM 39.9722 -77.9611 252° West 405 466 22,000 -120 Descending Cleveland Center
09:09PM 39.9731 -78.1086 270° West 404 465 22,000  Level Cleveland Center
09:10PM 39.9806 -78.2525 274° West 401 461 22,000  Level Cleveland Center
09:11PM 40.0044 -78.3997 282° West 405 466 22,000  Level Cleveland Center
09:12PM 40.0311 -78.5706 282° West 401 461 22,000  Level Cleveland Center
09:13PM 40.0517 -78.7153 281° West 404 465 22,000  Level Cleveland Center
09:14PM 40.0731 -78.8553 281° West 392 451 22,000 -720 Level Cleveland Center
09:15PM 40.0956 -79.0031 281° West 414 476 20,600 -1,740 Descending Cleveland Center
09:16PM 40.1147 -79.1408 280° West 391 450 18,500 -2,100 Descending Cleveland Center
09:17PM 40.1339 -79.2744 281° West 377 434 16,400 -2,100 Descending Cleveland Center
09:18PM 40.1558 -79.4192 281° West 375 432 14,300 -2,040 Descending Cleveland Center
09:19PM 40.1728 -79.5511 280° West 370 426 12,300 -2,040 Descending Cleveland Center
09:20PM 40.2100 -79.6742 292° West 367 422 10,200 -1,140 Descending Cleveland Center
09:21PM 40.2547 -79.7822 298° West 345 397 10,000 -1,020 Descending Cleveland Center
09:22PM 40.2939 -79.8778 298° West 256 295 8,200 -1,560 Descending Cleveland Center
09:23PM 40.3161 -79.9314 299° West 176 203 6,800 -1,680 Descending Cleveland Center
09:24PM 40.3381 -79.9847 298° West 166 191 4,800 -1,380 Descending Cleveland Center
09:25PM 40.3614 -80.0419 298° West 175 201 4,000 -540 Descending Cleveland Center
09:27PM 40.3906 -80.0919 307° West 176 203 3,700 -660 Descending Cleveland Center
09:28PM 40.4225 -80.1344 315° West 147 169 2,700 -900 Descending Cleveland Center
09:29PM 40.4472 -80.1656 316° Northwest 133 153 1,900 -720 Descending Cleveland Center
09:30PM 40.4739 -80.1978 317° Northwest 131 151 1,300 -600 Descending Cleveland Center
09:32PM 40.4833 -80.2167 270° West  Level FlightAware Approximate